Time;durP1;ratioP1;P1;durP2;ratioP2;P2;SDS_P1;SDS_P2;PMS_P1;PMS_P2;Temp;Humidity;BMP_temperature;BMP_pressure;BME280_temperature;BME280_humidity;BME280_pressure;Samples;Min_cycle;Max_cycle;Signal;HPM_P1;HPM_P2
2022/03/01 00:01:00;;;;;;;18.80;12.50;;;;;;;2.95;65.89;100251.81;24983;1319;3026395;-69
2022/03/01 00:03:26;;;;;;;18.80;12.50;;;;;;;2.89;66.40;100252.41;23515;1319;8746808;-67
2022/03/01 00:05:56;;;;;;;28.00;18.30;;;;;;;3.02;65.93;100255.84;25027;1316;3027140;-68
2022/03/01 00:08:25;;;;;;;25.20;14.00;;;;;;;3.16;65.23;100254.38;25107;1319;3026004;-68
2022/03/01 00:10:54;;;;;;;22.50;12.50;;;;;;;2.97;65.93;100257.48;25074;1316;3026203;-68
2022/03/01 00:13:23;;;;;;;24.40;12.80;;;;;;;2.86;66.21;100251.25;25005;1319;3054844;-67
2022/03/01 00:15:52;;;;;;;21.20;13.10;;;;;;;2.71;66.64;100254.61;25045;1317;3026553;-65
2022/03/01 00:18:21;;;;;;;21.50;12.00;;;;;;;2.71;66.79;100257.90;25016;1319;3051425;-70
2022/03/01 00:20:50;;;;;;;24.20;13.70;;;;;;;2.63;67.05;100263.38;25052;1315;3028405;-68
2022/03/01 00:23:19;;;;;;;21.50;12.00;;;;;;;2.59;67.40;100268.63;25037;1317;3056104;-67
2022/03/01 00:25:48;;;;;;;20.50;12.10;;;;;;;2.55;67.45;100270.27;25057;1316;3026682;-68
2022/03/01 00:28:17;;;;;;;23.70;12.50;;;;;;;2.57;67.43;100267.10;25053;1316;3053568;-71
2022/03/01 00:30:45;;;;;;;19.40;11.60;;;;;;;2.58;67.63;100263.97;25107;1316;3026989;-68
2022/03/01 00:33:15;;;;;;;22.00;12.40;;;;;;;2.57;67.65;100260.36;25058;1315;3054383;-68
2022/03/01 00:35:44;;;;;;;21.80;11.90;;;;;;;2.53;67.89;100256.09;25141;1316;3028543;-65
2022/03/01 00:38:13;;;;;;;21.70;12.20;;;;;;;2.52;67.83;100242.96;25108;1316;3026614;-71
2022/03/01 00:40:42;;;;;;;23.80;13.00;;;;;;;2.46;68.02;100234.23;25115;1316;3055640;-67
2022/03/01 00:43:11;;;;;;;21.50;11.90;;;;;;;2.34;68.63;100231.98;25082;1314;3026613;-68
2022/03/01 00:45:42;;;;;;;21.20;12.20;;;;;;;2.36;68.21;100231.10;25096;1316;3027619;-70
2022/03/01 00:48:11;;;;;;;24.20;13.10;;;;;;;2.31;68.69;100218.20;25093;1316;3027105;-70
2022/03/01 00:50:40;;;;;;;24.20;12.60;;;;;;;2.18;69.17;100207.48;25115;1316;3052736;-63
2022/03/01 00:53:09;;;;;;;20.90;12.00;;;;;;;2.12;69.66;100200.65;25071;1316;3028954;-68
2022/03/01 00:55:38;;;;;;;22.70;12.20;;;;;;;2.09;69.71;100198.30;25110;1316;3055053;-64
2022/03/01 00:58:08;;;;;;;22.10;12.70;;;;;;;2.04;70.21;100204.06;25058;1316;3027027;-70
2022/03/01 01:00:38;;;;;;;24.20;13.70;;;;;;;1.95;70.59;100214.38;25102;1316;3048874;-66
2022/03/01 01:03:07;;;;;;;24.70;13.40;;;;;;;1.97;70.87;100217.80;25103;1316;3029903;-73
2022/03/01 01:05:36;;;;;;;21.20;11.50;;;;;;;2.68;69.64;100207.58;25126;1315;3069017;-67
2022/03/01 01:08:05;;;;;;;21.50;11.20;;;;;;;3.05;67.37;100192.27;25115;1316;3026691;-65
2022/03/01 01:10:34;;;;;;;24.10;12.20;;;;;;;2.99;67.86;100179.73;25069;1316;3027626;-73
2022/03/01 01:13:03;;;;;;;21.30;11.80;;;;;;;3.08;67.46;100176.63;25113;1316;3069673;-68
2022/03/01 01:15:33;;;;;;;22.40;12.70;;;;;;;2.86;67.95;100182.73;25048;1316;3026564;-69
2022/03/01 01:18:02;;;;;;;24.00;12.60;;;;;;;2.83;68.24;100188.84;25121;1316;3028980;-63
2022/03/01 01:20:31;;;;;;;25.60;13.30;;;;;;;2.55;68.86;100191.02;25043;1315;3070503;-65
2022/03/01 01:23:20;;;;;;;28.40;13.30;;;;;;;2.45;69.26;100183.58;25087;1316;3049466;-70
2022/03/01 01:25:49;;;;;;;26.50;14.70;;;;;;;2.39;69.34;100175.20;25041;1316;3026388;-69
2022/03/01 01:28:17;;;;;;;29.60;15.10;;;;;;;2.32;69.83;100168.05;25087;1316;3070418;-69
2022/03/01 01:30:46;;;;;;;30.50;14.80;;;;;;;2.15;70.38;100172.98;25073;1316;3029563;-68
2022/03/01 01:33:15;;;;;;;26.50;13.70;;;;;;;2.05;70.95;100163.96;25132;1316;3052209;-68
2022/03/01 01:35:44;;;;;;;28.20;14.20;;;;;;;2.02;70.85;100156.40;25069;1316;3027228;-67
2022/03/01 01:38:13;;;;;;;29.20;14.60;;;;;;;1.91;71.47;100146.71;25098;1316;3054937;-65
2022/03/01 01:40:42;;;;;;;24.50;13.50;;;;;;;1.88;71.43;100139.48;25066;1316;3026717;-65
2022/03/01 01:43:11;;;;;;;26.60;13.30;;;;;;;1.87;71.84;100139.85;25041;1316;3051735;-64
2022/03/01 01:45:40;;;;;;;30.10;13.70;;;;;;;1.84;71.63;100134.37;25081;1314;3026180;-67
2022/03/01 01:48:10;;;;;;;26.40;11.20;;;;;;;1.77;72.13;100133.61;25114;1316;3031527;-70
2022/03/01 01:50:39;;;;;;;23.20;12.10;;;;;;;2.42;71.16;100128.80;25049;1314;3049506;-68
2022/03/01 01:53:09;;;;;;;23.80;12.80;;;;;;;3.16;69.05;100119.69;25051;1316;3026874;-66
2022/03/01 01:55:38;;;;;;;25.60;13.90;;;;;;;3.23;68.03;100115.75;25089;1316;3026943;-68
2022/03/01 01:58:07;;;;;;;29.60;13.50;;;;;;;2.94;68.42;100117.34;25028;1316;3052031;-66
2022/03/01 02:00:36;;;;;;;24.50;12.60;;;;;;;2.93;68.77;100120.99;25120;1316;3026713;-66
2022/03/01 02:03:22;;;;;;;31.30;13.20;;;;;;;2.77;68.77;100125.95;25069;1316;3059269;-67
2022/03/01 02:05:51;;;;;;;26.50;14.30;;;;;;;2.56;69.43;100127.18;25123;1316;3025997;-72
2022/03/01 02:08:28;;;;;;;27.90;14.10;;;;;;;2.36;70.42;100127.19;25077;1316;3050280;-71
2022/03/01 02:10:58;;;;;;;28.90;14.90;;;;;;;2.32;70.49;100114.98;25193;1315;3059061;-70
2022/03/01 02:13:27;;;;;;;28.10;14.70;;;;;;;2.14;71.25;100119.58;25032;1315;3028644;-68
2022/03/01 02:15:56;;;;;;;30.40;14.90;;;;;;;2.07;72.13;100112.77;25102;1316;3027140;-65
2022/03/01 02:18:26;;;;;;;31.50;15.40;;;;;;;1.94;72.20;100109.00;25092;1316;3058194;-65
2022/03/01 02:20:55;;;;;;;34.40;15.60;;;;;;;1.89;72.50;100106.13;25080;1317;3026342;-67
2022/03/01 02:23:24;;;;;;;30.60;15.30;;;;;;;1.83;72.80;100106.91;25087;1317;3050458;-65
2022/03/01 02:25:54;;;;;;;31.70;14.10;;;;;;;1.75;73.20;100107.38;25169;1315;3029052;-68
2022/03/01 02:28:23;;;;;;;28.80;13.40;;;;;;;2.33;72.31;100097.30;25061;1316;3026552;-69
2022/03/01 02:30:52;;;;;;;28.80;13.60;;;;;;;2.92;70.37;100092.11;25098;1316;3026352;-66
2022/03/01 02:33:21;;;;;;;26.00;14.30;;;;;;;3.07;69.33;100083.52;25113;1316;3057015;-64
2022/03/01 02:35:50;;;;;;;27.10;12.90;;;;;;;3.06;69.11;100080.77;25031;1314;3026005;-69
2022/03/01 02:38:19;;;;;;;28.60;14.20;;;;;;;2.91;69.34;100080.02;25106;1316;3053889;-65
2022/03/01 02:40:48;;;;;;;27.70;13.30;;;;;;;2.57;70.34;100081.00;25115;1316;3027270;-69
2022/03/01 02:43:17;;;;;;;27.90;14.00;;;;;;;2.37;70.98;100081.86;25074;1316;3053888;-68
2022/03/01 02:45:46;;;;;;;27.00;13.60;;;;;;;2.21;71.85;100083.00;25086;1316;3026492;-67
2022/03/01 02:48:15;;;;;;;30.10;14.60;;;;;;;2.19;71.97;100076.10;25087;1316;3048477;-68
2022/03/01 02:50:44;;;;;;;26.80;12.80;;;;;;;2.05;72.71;100075.66;25098;1316;3026811;-69
2022/03/01 02:53:13;;;;;;;34.70;12.30;;;;;;;2.03;72.54;100072.76;25086;1316;3071486;-62
2022/03/01 02:55:43;;;;;;;27.50;13.00;;;;;;;1.86;73.01;100069.55;25092;1316;3026644;-68
2022/03/01 02:58:11;;;;;;;23.60;12.40;;;;;;;1.75;73.79;100070.41;25084;1316;3026365;-68
2022/03/01 03:00:42;;;;;;;23.80;10.90;;;;;;;1.80;74.36;100068.60;25059;1316;3071165;-67
2022/03/01 03:03:11;;;;;;;23.60;11.20;;;;;;;2.50;72.36;100065.56;25065;1316;3028046;-68
2022/03/01 03:05:42;;;;;;;25.40;12.00;;;;;;;3.08;70.57;100062.21;25100;1316;3026880;-64
2022/03/01 03:08:11;;;;;;;24.00;11.80;;;;;;;3.13;70.00;100057.09;25114;1315;3027506;-71
2022/03/01 03:10:40;;;;;;;27.80;12.20;;;;;;;3.00;69.87;100060.11;25062;1316;3029862;-66
2022/03/01 03:13:10;;;;;;;21.10;12.30;;;;;;;2.96;69.85;100061.06;25086;1315;3052619;-71
2022/03/01 03:15:39;;;;;;;23.60;10.50;;;;;;;2.60;70.62;100064.36;25099;1316;3029968;-65
2022/03/01 03:18:08;;;;;;;22.60;11.50;;;;;;;2.48;71.06;100063.70;25112;1316;3026708;-65
2022/03/01 03:20:37;;;;;;;24.50;12.60;;;;;;;2.26;72.12;100055.42;25060;1316;3055087;-70
2022/03/01 03:23:09;;;;;;;23.20;12.00;;;;;;;2.09;73.11;100060.55;25139;1316;3028741;-68
2022/03/01 03:25:38;;;;;;;26.10;12.70;;;;;;;2.09;72.62;100059.17;25100;1316;3026477;-65
2022/03/01 03:28:07;;;;;;;25.80;13.50;;;;;;;1.93;73.61;100068.40;25093;1316;3027339;-69
2022/03/01 03:30:36;;;;;;;27.10;13.10;;;;;;;1.97;73.56;100068.16;25111;1316;3051387;-70
2022/03/01 03:33:06;;;;;;;20.30;10.50;;;;;;;1.90;73.93;100075.20;25120;1316;3026460;-66
2022/03/01 03:35:35;;;;;;;18.00;9.20;;;;;;;2.59;72.73;100076.12;25090;1316;3027547;-68
2022/03/01 03:38:04;;;;;;;23.80;12.00;;;;;;;3.13;70.86;100075.10;25090;1315;3051735;-69
2022/03/01 03:40:33;;;;;;;25.60;11.40;;;;;;;3.24;70.27;100074.36;25134;1316;3026653;-72
2022/03/01 03:43:02;;;;;;;21.70;10.40;;;;;;;3.21;70.15;100078.91;25051;1316;3026312;-67
2022/03/01 03:45:31;;;;;;;22.70;10.40;;;;;;;3.08;70.18;100077.27;25140;1319;3052510;-70
2022/03/01 03:48:00;;;;;;;22.60;11.80;;;;;;;2.86;70.57;100082.02;25055;1316;3026851;-72
2022/03/01 03:50:30;;;;;;;22.50;11.30;;;;;;;2.68;70.99;100085.13;25108;1314;3054594;-69
2022/03/01 03:53:00;;;;;;;24.70;11.60;;;;;;;2.54;71.80;100093.16;25112;1316;3027039;-69
2022/03/01 03:55:31;;;;;;;21.40;10.50;;;;;;;2.44;72.12;100093.51;25112;1318;3026148;-66
2022/03/01 03:58:01;;;;;;;23.70;11.30;;;;;;;2.31;72.23;100091.82;25035;1315;3026412;-70
2022/03/01 04:00:29;;;;;;;21.40;10.30;;;;;;;2.23;72.46;100085.39;25114;1314;3026521;-66
2022/03/01 04:03:07;;;;;;;27.20;10.80;;;;;;;2.23;72.29;100090.39;25075;1316;3058853;-69
2022/03/01 04:05:37;;;;;;;20.90;8.30;;;;;;;2.20;72.97;100097.19;25071;1316;3028188;-67
2022/03/01 04:08:07;;;;;;;19.00;8.90;;;;;;;2.76;72.14;100102.79;25111;1316;3026581;-67
2022/03/01 04:10:36;;;;;;;22.10;10.30;;;;;;;3.07;70.70;100110.52;25123;1316;3056364;-67
2022/03/01 04:13:06;;;;;;;22.10;10.60;;;;;;;3.33;70.18;100110.34;25093;1315;3026974;-68
2022/03/01 04:15:35;;;;;;;20.50;9.50;;;;;;;3.39;69.84;100110.41;25061;1316;3026890;-64
2022/03/01 04:18:04;;;;;;;19.60;10.00;;;;;;;3.36;69.69;100106.83;25071;1316;3057419;-68
2022/03/01 04:20:34;;;;;;;24.50;11.80;;;;;;;3.07;69.91;100104.13;25079;1316;3026355;-71
2022/03/01 04:23:03;;;;;;;21.20;10.20;;;;;;;2.85;70.85;100103.33;25111;1316;3051825;-69
2022/03/01 04:25:32;;;;;;;21.90;10.20;;;;;;;2.75;71.17;100111.83;25351;1317;3026562;-61
2022/03/01 04:28:02;;;;;;;21.90;11.20;;;;;;;2.58;71.86;100110.89;25507;1313;3028592;-61
2022/03/01 04:30:31;;;;;;;21.70;10.70;;;;;;;2.60;71.73;100113.46;25453;1316;3054276;-61
2022/03/01 04:33:00;;;;;;;21.10;9.80;;;;;;;2.60;71.70;100112.42;25318;1316;3027056;-69
2022/03/01 04:35:29;;;;;;;23.60;10.50;;;;;;;2.53;72.18;100113.58;25078;1316;3052120;-70
2022/03/01 04:37:58;;;;;;;21.90;9.80;;;;;;;2.47;72.66;100115.61;25153;1316;3026847;-65
2022/03/01 04:40:27;;;;;;;18.30;9.60;;;;;;;2.91;72.08;100116.89;25066;1313;3048490;-65
2022/03/01 04:42:55;;;;;;;21.60;10.20;;;;;;;3.63;70.58;100110.58;25133;1312;3029345;-64
2022/03/01 04:45:25;;;;;;;18.10;8.50;;;;;;;3.69;69.33;100107.17;25030;1313;3071193;-71
2022/03/01 04:47:54;;;;;;;22.20;10.20;;;;;;;3.63;69.72;100104.86;25082;1313;3027210;-65
2022/03/01 04:50:22;;;;;;;24.60;10.80;;;;;;;3.39;69.94;100111.27;25020;1313;3027001;-71
2022/03/01 04:52:51;;;;;;;23.90;10.30;;;;;;;3.29;70.07;100113.02;25116;1313;3068605;-68
2022/03/01 04:55:21;;;;;;;19.30;10.10;;;;;;;3.00;70.95;100112.58;25089;1313;3029580;-70
2022/03/01 04:57:50;;;;;;;20.90;9.90;;;;;;;2.91;70.88;100114.29;25116;1313;3026983;-66
2022/03/01 05:00:19;;;;;;;21.50;9.70;;;;;;;2.86;71.11;100118.52;25044;1317;3067997;-72
2022/03/01 05:02:48;;;;;;;22.30;10.20;;;;;;;2.72;71.35;100118.61;25061;1313;3026476;-66
2022/03/01 05:05:18;;;;;;;20.40;9.20;;;;;;;2.60;72.30;100132.67;25087;1316;3026959;-66
2022/03/01 05:07:49;;;;;;;19.30;9.50;;;;;;;2.48;72.72;100124.23;25091;1313;3070851;-71
2022/03/01 05:10:19;;;;;;;19.70;9.90;;;;;;;2.46;72.41;100123.73;25053;1313;3026770;-64
2022/03/01 05:12:49;;;;;;;21.10;10.30;;;;;;;2.47;71.55;100121.48;25072;1313;3049388;-68
2022/03/01 05:15:20;;;;;;;19.40;7.90;;;;;;;2.36;72.19;100115.08;25062;1313;3027395;-66
2022/03/01 05:17:49;;;;;;;19.60;9.00;;;;;;;2.85;71.02;100113.69;25114;1312;3028049;-67
2022/03/01 05:20:19;;;;;;;20.80;9.10;;;;;;;3.34;68.93;100105.84;25073;1313;3028579;-70
2022/03/01 05:22:48;;;;;;;19.30;8.30;;;;;;;3.33;68.50;100112.61;25093;1313;3071997;-67
2022/03/01 05:25:18;;;;;;;20.00;9.40;;;;;;;3.23;68.40;100111.09;25092;1312;3026749;-64
2022/03/01 05:27:49;;;;;;;17.70;7.70;;;;;;;3.07;68.83;100116.59;25112;1313;3026765;-73
2022/03/01 05:30:19;;;;;;;17.60;7.90;;;;;;;2.64;69.70;100122.73;25092;1316;3027881;-69
2022/03/01 05:32:50;;;;;;;14.90;7.20;;;;;;;2.71;69.46;100118.80;25116;1315;3026592;-71
2022/03/01 05:35:23;;;;;;;17.10;8.00;;;;;;;2.73;69.18;100115.67;25110;1313;3026808;-63
2022/03/01 05:37:54;;;;;;;16.90;8.10;;;;;;;2.63;69.86;100113.59;25128;1313;3027630;-68
2022/03/01 05:40:25;;;;;;;16.00;8.10;;;;;;;2.43;70.45;100110.82;25102;1316;3026376;-70
2022/03/01 05:42:54;;;;;;;16.00;8.00;;;;;;;2.50;70.32;100111.40;25072;1312;3026832;-72
2022/03/01 05:45:25;;;;;;;14.70;8.00;;;;;;;2.47;70.42;100112.99;25102;1313;3026849;-70
2022/03/01 05:47:56;;;;;;;19.20;9.50;;;;;;;2.51;70.29;100114.30;25124;1314;3026302;-66
2022/03/01 05:50:26;;;;;;;17.50;8.60;;;;;;;2.46;71.03;100114.73;25074;1313;3027899;-69
2022/03/01 05:52:55;;;;;;;24.30;10.40;;;;;;;2.46;71.18;100114.40;25105;1313;3030135;-70
2022/03/01 05:55:24;;;;;;;20.30;9.00;;;;;;;2.40;71.79;100110.87;25106;1316;3026331;-68
2022/03/01 05:57:54;;;;;;;19.90;8.60;;;;;;;2.56;70.98;100114.76;25100;1318;3054188;-64
2022/03/01 06:00:23;;;;;;;14.40;7.40;;;;;;;2.56;71.34;100116.83;25097;1314;3026033;-66
2022/03/01 06:02:53;;;;;;;16.60;8.50;;;;;;;3.05;70.60;100114.89;25037;1314;3026636;-69
2022/03/01 06:05:22;;;;;;;16.70;8.30;;;;;;;3.76;69.40;100111.70;25136;1316;3052097;-68
2022/03/01 06:07:51;;;;;;;18.70;8.20;;;;;;;3.90;68.37;100103.23;25048;1314;3026198;-69
2022/03/01 06:10:20;;;;;;;20.00;8.70;;;;;;;3.92;68.34;100102.50;25064;1314;3051764;-69
2022/03/01 06:12:49;;;;;;;18.80;8.70;;;;;;;3.75;68.29;100109.98;25083;1313;3026691;-64
2022/03/01 06:15:18;;;;;;;16.60;8.30;;;;;;;3.51;69.34;100121.05;25123;1316;3051340;-67
2022/03/01 06:17:47;;;;;;;21.50;10.30;;;;;;;3.14;70.53;100125.63;25132;1316;3026482;-64
2022/03/01 06:20:17;;;;;;;18.30;9.10;;;;;;;2.89;71.84;100131.46;25035;1316;3070718;-66
2022/03/01 06:22:47;;;;;;;19.10;9.60;;;;;;;2.97;71.78;100125.07;25080;1315;3026655;-70
2022/03/01 06:25:16;;;;;;;17.50;8.60;;;;;;;3.04;71.09;100114.55;25129;1316;3026706;-72
2022/03/01 06:27:45;;;;;;;21.10;9.60;;;;;;;2.93;71.53;100118.91;25127;1313;3070534;-68
2022/03/01 06:30:16;;;;;;;21.80;9.70;;;;;;;2.83;72.25;100119.63;25141;1313;3027567;-67
2022/03/01 06:32:46;;;;;;;20.40;9.10;;;;;;;2.89;72.23;100122.11;25181;1313;3026649;-68
2022/03/01 06:35:15;;;;;;;17.90;8.90;;;;;;;2.90;71.95;100120.19;25081;1313;3027780;-68
2022/03/01 06:37:44;;;;;;;16.20;7.30;;;;;;;2.91;72.15;100123.63;25094;1313;3052609;-67
2022/03/01 06:40:13;;;;;;;17.10;9.00;;;;;;;3.43;71.12;100125.21;25093;1316;3027671;-63
2022/03/01 06:42:42;;;;;;;16.00;8.10;;;;;;;3.81;70.10;100120.08;25089;1313;3067758;-72
2022/03/01 06:45:12;;;;;;;15.00;7.40;;;;;;;4.06;69.59;100120.71;25120;1313;3028586;-67
2022/03/01 06:47:43;;;;;;;20.40;8.50;;;;;;;4.03;69.26;100116.80;25101;1313;3026774;-68
2022/03/01 06:50:12;;;;;;;14.60;7.60;;;;;;;3.93;69.41;100118.59;25063;1313;3026393;-69
2022/03/01 06:52:42;;;;;;;18.40;8.70;;;;;;;3.77;69.63;100118.95;25042;1312;3030131;-71
2022/03/01 06:55:13;;;;;;;19.70;8.80;;;;;;;3.62;70.03;100121.70;25077;1312;3026552;-71
2022/03/01 06:57:43;;;;;;;18.20;8.80;;;;;;;3.48;70.56;100127.70;25082;1316;3026367;-70
2022/03/01 07:00:13;;;;;;;18.70;9.00;;;;;;;3.34;70.98;100124.17;25068;1316;3027038;-64
2022/03/01 07:02:43;;;;;;;19.60;9.50;;;;;;;3.34;71.00;100117.79;25034;1319;3027211;-71
2022/03/01 07:05:13;;;;;;;18.00;8.90;;;;;;;3.36;70.56;100115.14;25105;1316;3026269;-66
2022/03/01 07:07:45;;;;;;;20.70;10.50;;;;;;;3.29;70.66;100120.30;25044;1316;3052435;-70
2022/03/01 07:10:15;;;;;;;19.60;10.10;;;;;;;3.15;71.28;100115.21;25067;1316;3026294;-63
2022/03/01 07:12:45;;;;;;;22.40;9.50;;;;;;;3.15;71.28;100114.69;25053;1313;3027202;-68
2022/03/01 07:15:14;;;;;;;21.70;9.80;;;;;;;3.16;71.21;100107.23;25102;1316;3026555;-68
2022/03/01 07:17:45;;;;;;;21.90;10.00;;;;;;;3.17;71.25;100111.90;25127;1315;3026897;-64
2022/03/01 07:20:15;;;;;;;22.50;9.10;;;;;;;3.14;71.06;100109.00;25049;1313;3027530;-71
2022/03/01 07:22:45;;;;;;;23.10;10.40;;;;;;;3.51;70.85;100101.30;25120;1316;3026570;-69
2022/03/01 07:25:14;;;;;;;16.30;7.90;;;;;;;4.09;69.31;100092.90;25111;1313;3053004;-64
2022/03/01 07:27:50;;;;;;;22.00;9.90;;;;;;;4.20;68.23;100098.38;25041;1313;3054796;-67
2022/03/01 07:30:20;;;;;;;21.90;9.70;;;;;;;4.09;68.33;100099.83;25110;1313;3026466;-66
2022/03/01 07:32:52;;;;;;;19.00;9.50;;;;;;;4.00;68.59;100100.39;25150;1316;3026700;-70
2022/03/01 07:35:21;;;;;;;20.30;9.60;;;;;;;3.82;68.76;100100.30;25080;1313;3026865;-72
2022/03/01 07:37:51;;;;;;;19.40;9.30;;;;;;;3.61;69.61;100103.70;25058;1313;3026533;-70
2022/03/01 07:40:21;;;;;;;17.60;8.80;;;;;;;3.65;69.55;100115.57;25149;1313;3053366;-69
2022/03/01 07:42:50;;;;;;;21.30;9.90;;;;;;;3.36;70.60;100118.80;25080;1313;3026772;-65
2022/03/01 07:45:20;;;;;;;16.40;8.30;;;;;;;3.24;71.26;100112.45;25116;1316;3026634;-71
2022/03/01 07:47:51;;;;;;;16.80;8.60;;;;;;;3.19;71.05;100117.04;25022;1316;3053942;-67
2022/03/01 07:50:20;;;;;;;18.70;9.20;;;;;;;3.12;71.58;100113.90;25047;1312;3027139;-71
2022/03/01 07:52:51;;;;;;;16.20;8.90;;;;;;;3.16;71.59;100109.48;25093;1313;3026594;-65
2022/03/01 07:55:20;;;;;;;15.00;9.20;;;;;;;3.25;71.08;100110.33;25131;1313;3027414;-71
2022/03/01 07:57:49;;;;;;;20.30;9.40;;;;;;;3.21;71.20;100108.35;25136;1313;3027200;-67
2022/03/01 08:00:19;;;;;;;17.60;9.20;;;;;;;3.24;71.07;100106.73;25084;1313;3026595;-70
2022/03/01 08:02:48;;;;;;;18.50;9.90;;;;;;;3.16;70.80;100101.35;25118;1314;3048879;-71
2022/03/01 08:05:17;;;;;;;16.20;8.60;;;;;;;2.98;71.25;100101.70;25065;1313;3027290;-67
2022/03/01 08:07:46;;;;;;;17.40;9.00;;;;;;;2.95;71.42;100097.42;25081;1316;3071133;-71
2022/03/01 08:10:16;;;;;;;18.50;9.50;;;;;;;2.78;72.13;100102.42;25141;1314;3027031;-65
2022/03/01 08:12:47;;;;;;;15.70;8.60;;;;;;;2.83;72.23;100105.27;25075;1312;3027202;-67
2022/03/01 08:15:17;;;;;;;16.40;7.30;;;;;;;2.81;72.48;100102.70;25093;1313;3026704;-67
2022/03/01 08:17:51;;;;;;;12.80;6.30;;;;;;;3.47;70.26;100098.64;25126;1313;3029304;-67
2022/03/01 08:20:20;;;;;;;;;;;;;;;4.03;68.53;100092.88;25107;1313;3052545;-65
2022/03/01 08:22:49;;;;;;;13.90;6.70;;;;;;;4.18;67.40;100094.94;25184;1316;3026702;-67
2022/03/01 08:25:18;;;;;;;12.00;6.50;;;;;;;4.17;67.55;100094.95;25046;1316;3049063;-66
2022/03/01 08:27:48;;;;;;;15.70;7.50;;;;;;;4.19;67.52;100099.23;25127;1316;3030007;-68
2022/03/01 08:30:17;;;;;;;15.10;7.10;;;;;;;3.89;67.95;100101.88;25052;1316;3026938;-69
2022/03/01 08:32:47;;;;;;;14.60;7.50;;;;;;;3.85;68.01;100103.52;25097;1316;3048910;-64
2022/03/01 08:35:17;;;;;;;15.90;7.10;;;;;;;3.66;68.78;100101.85;25068;1316;3026651;-67
2022/03/01 08:37:47;;;;;;;11.60;7.20;;;;;;;3.63;68.84;100104.19;25058;1316;3026246;-70
2022/03/01 08:40:19;;;;;;;20.60;7.20;;;;;;;3.50;69.05;100103.05;25072;1316;3026962;-71
2022/03/01 08:42:49;;;;;;;15.00;8.00;;;;;;;3.39;69.19;100105.02;25076;1314;3026549;-66
2022/03/01 08:45:18;;;;;;;17.00;7.80;;;;;;;3.27;69.89;100106.84;25134;1316;3026820;-69
2022/03/01 08:47:47;;;;;;;15.30;8.70;;;;;;;3.15;70.70;100113.48;25047;1315;3026502;-66
2022/03/01 08:50:16;;;;;;;15.80;8.50;;;;;;;3.16;70.73;100116.76;25063;1314;3026583;-66
2022/03/01 08:52:48;;;;;;;14.80;8.20;;;;;;;3.14;71.06;100116.09;25130;1316;3026564;-66
2022/03/01 08:55:18;;;;;;;15.30;7.50;;;;;;;3.07;71.19;100115.55;25095;1316;3026719;-66
2022/03/01 08:57:47;;;;;;;15.40;7.50;;;;;;;3.14;70.76;100116.10;25096;1316;3026164;-67
2022/03/01 09:00:17;;;;;;;15.50;8.70;;;;;;;3.17;70.53;100110.15;25081;1314;3028138;-61
2022/03/01 09:02:48;;;;;;;20.20;8.90;;;;;;;3.15;70.78;100110.37;25146;1314;3030129;-63
2022/03/01 09:05:17;;;;;;;18.60;8.20;;;;;;;2.91;71.92;100112.75;25094;1316;3026212;-70
2022/03/01 09:07:46;;;;;;;16.10;8.20;;;;;;;2.98;71.64;100112.95;25150;1316;3026651;-67
2022/03/01 09:10:21;;;;;;;17.10;7.60;;;;;;;2.99;71.74;100110.16;25116;1314;3026422;-69
2022/03/01 09:12:52;;;;;;;14.10;6.90;;;;;;;3.61;70.09;100100.59;25110;1316;3048565;-68
2022/03/01 09:15:21;;;;;;;17.50;8.60;;;;;;;4.28;67.95;100096.77;25053;1314;3026416;-64
2022/03/01 09:17:52;;;;;;;22.50;10.20;;;;;;;4.44;67.03;100093.96;25742;1303;3027630;-61
2022/03/01 09:20:23;;;;;;;23.50;11.00;;;;;;;4.52;66.94;100091.67;25115;1316;3027572;-59
2022/03/01 09:22:53;;;;;;;30.60;14.00;;;;;;;4.33;66.91;100090.77;25058;1316;3026646;-59
2022/03/01 09:25:24;;;;;;;33.70;14.70;;;;;;;4.25;67.25;100086.98;25111;1316;3026786;-56
2022/03/01 09:27:53;;;;;;;26.80;13.80;;;;;;;4.07;67.47;100087.75;25055;1316;3027171;-57
2022/03/01 09:30:22;;;;;;;26.20;12.40;;;;;;;4.08;67.38;100088.08;25060;1316;3026880;-57
2022/03/01 09:32:51;;;;;;;23.90;12.70;;;;;;;4.06;67.44;100087.77;25114;1316;3056198;-58
2022/03/01 09:35:21;;;;;;;24.40;12.40;;;;;;;3.99;67.66;100085.51;25075;1316;3026711;-58
2022/03/01 09:37:53;;;;;;;27.00;12.50;;;;;;;3.95;67.87;100082.83;25065;1316;3051546;-58
2022/03/01 09:40:23;;;;;;;26.60;12.40;;;;;;;3.95;68.17;100078.33;25073;1316;3026508;-57
2022/03/01 09:42:52;;;;;;;25.00;12.10;;;;;;;3.86;68.02;100075.06;25104;1316;3026897;-57
2022/03/01 09:45:24;;;;;;;21.50;11.80;;;;;;;3.76;68.56;100077.71;25106;1316;3026809;-56
2022/03/01 09:47:56;;;;;;;20.50;11.80;;;;;;;3.71;68.75;100075.77;25136;1316;3027290;-61
2022/03/01 09:50:33;;;;;;;22.80;12.00;;;;;;;3.65;69.22;100080.75;25004;1316;3026758;-63
2022/03/01 09:53:03;;;;;;;18.40;10.20;;;;;;;3.60;69.27;100080.16;25100;1316;3068339;-62
2022/03/01 09:55:34;;;;;;;21.70;11.30;;;;;;;3.59;69.45;100071.86;25051;1316;3026547;-61
2022/03/01 09:58:03;;;;;;;20.20;9.30;;;;;;;3.56;69.75;100069.52;25143;1316;3026713;-64
2022/03/01 10:00:34;;;;;;;20.80;9.80;;;;;;;3.66;68.98;100064.77;25097;1316;3068505;-63
2022/03/01 10:03:03;;;;;;;19.80;10.40;;;;;;;3.61;69.28;100058.81;25088;1316;3028758;-64
2022/03/01 10:05:37;;;;;;;20.10;10.20;;;;;;;3.58;69.19;100061.34;25082;1316;3026561;-63
2022/03/01 10:08:29;;;;;;;20.20;10.50;;;;;;;3.60;69.58;100060.77;25094;1316;3069686;-65
2022/03/01 10:10:59;;;;;;;19.70;9.40;;;;;;;3.49;70.30;100059.09;25098;1315;3026447;-63
2022/03/01 10:13:32;;;;;;;20.30;9.40;;;;;;;4.18;69.21;100056.27;25084;1316;3026107;-62
2022/03/01 10:16:07;;;;;;;19.80;9.10;;;;;;;4.63;66.89;100056.69;25063;1315;3054719;-64
2022/03/01 10:18:39;;;;;;;19.80;8.80;;;;;;;4.82;66.44;100053.06;25044;1316;3059034;-63
2022/03/01 10:21:11;;;;;;;20.20;9.90;;;;;;;4.72;66.49;100053.49;25095;1316;3026478;-63
2022/03/01 10:23:54;;;;;;;21.70;10.30;;;;;;;4.52;66.71;100059.93;25104;1316;3026804;-63
2022/03/01 10:26:27;;;;;;;21.30;10.70;;;;;;;4.39;67.34;100062.69;25060;1315;3053599;-62
2022/03/01 10:28:58;;;;;;;21.30;10.70;;;;;;;4.33;67.34;100061.63;25023;1319;3026955;-64
2022/03/01 10:31:29;;;;;;;19.80;10.10;;;;;;;4.38;66.98;100069.83;25147;1316;3026386;-63
2022/03/01 10:34:16;;;;;;;25.00;11.30;;;;;;;4.21;67.48;100071.98;25133;1316;3026737;-63
2022/03/01 10:36:49;;;;;;;20.80;11.40;;;;;;;3.92;68.79;100073.55;25082;1316;3054311;-63
2022/03/01 10:39:27;;;;;;;24.40;11.90;;;;;;;3.85;69.22;100076.33;25125;1316;3026977;-66
2022/03/01 10:41:56;;;;;;;21.20;10.90;;;;;;;3.70;69.91;100066.94;25047;1316;3049522;-65
2022/03/01 10:44:29;;;;;;;24.30;11.80;;;;;;;3.70;69.70;100065.40;25101;1316;3026638;-66
2022/03/01 10:47:04;;;;;;;25.80;12.50;;;;;;;3.75;69.15;100066.33;25116;1316;3055317;-64
2022/03/01 10:49:34;;;;;;;27.10;13.00;;;;;;;3.66;69.79;100067.89;25048;1316;3051366;-63
2022/03/01 10:52:07;;;;;;;32.30;13.10;;;;;;;3.56;70.39;100066.39;25110;1316;3028000;-65
2022/03/01 10:54:41;;;;;;;31.00;15.10;;;;;;;3.55;70.29;100068.33;25059;1315;3050736;-65
2022/03/01 10:57:21;;;;;;;31.30;14.70;;;;;;;3.56;70.09;100063.45;25103;1316;3069122;-66
2022/03/01 10:59:51;;;;;;;29.90;13.60;;;;;;;3.47;70.38;100064.67;25099;1316;3051373;-66
2022/03/01 11:02:20;;;;;;;27.20;14.00;;;;;;;3.34;70.77;100066.52;25171;1316;3026331;-66
2022/03/01 11:04:50;;;;;;;22.80;10.70;;;;;;;3.31;71.16;100065.00;25114;1316;3026861;-64
2022/03/01 11:07:20;;;;;;;22.00;10.00;;;;;;;3.92;69.47;100053.41;25108;1316;3027585;-63
2022/03/01 11:09:51;;;;;;;23.20;9.70;;;;;;;4.51;67.42;100051.98;25049;1316;3028391;-65
2022/03/01 11:12:22;;;;;;;19.50;10.00;;;;;;;4.60;66.60;100053.98;25070;1316;3026542;-63
2022/03/01 11:14:57;;;;;;;20.00;10.10;;;;;;;4.52;66.84;100051.23;24998;1316;3026192;-67
2022/03/01 11:17:52;;;;;;;24.40;11.70;;;;;;;4.32;66.95;100052.28;25053;1314;3068704;-63